sensor_id;sensor_type;location;lat;lon;timestamp;P1;durP1;ratioP1;P2;durP2;ratioP2
55663;SDS011;41540;57.880;12.164;2023-07-24T00:08:36;2.95;;;1.92;;
55663;SDS011;41540;57.880;12.164;2023-07-24T00:18:36;3.03;;;2.50;;
55663;SDS011;41540;57.880;12.164;2023-07-24T00:28:37;3.63;;;2.10;;
55663;SDS011;41540;57.880;12.164;2023-07-24T00:38:37;1.80;;;1.70;;
55663;SDS011;41540;57.880;12.164;2023-07-24T00:48:37;2.10;;;1.70;;
55663;SDS011;41540;57.880;12.164;2023-07-24T00:58:39;2.30;;;2.10;;
55663;SDS011;41540;57.880;12.164;2023-07-24T01:08:39;2.83;;;2.50;;
55663;SDS011;41540;57.880;12.164;2023-07-24T01:18:40;2.05;;;1.83;;
55663;SDS011;41540;57.880;12.164;2023-07-24T01:28:43;1.98;;;1.88;;
55663;SDS011;41540;57.880;12.164;2023-07-24T01:38:44;2.03;;;1.88;;
55663;SDS011;41540;57.880;12.164;2023-07-24T01:48:45;3.20;;;1.65;;
55663;SDS011;41540;57.880;12.164;2023-07-24T01:58:46;1.47;;;1.37;;
55663;SDS011;41540;57.880;12.164;2023-07-24T02:08:47;1.63;;;1.50;;
55663;SDS011;41540;57.880;12.164;2023-07-24T02:18:49;2.45;;;1.80;;
55663;SDS011;41540;57.880;12.164;2023-07-24T02:28:49;4.18;;;1.55;;
55663;SDS011;41540;57.880;12.164;2023-07-24T02:38:50;3.90;;;2.03;;
55663;SDS011;41540;57.880;12.164;2023-07-24T02:48:51;2.88;;;1.75;;
55663;SDS011;41540;57.880;12.164;2023-07-24T02:58:52;2.33;;;1.60;;
55663;SDS011;41540;57.880;12.164;2023-07-24T03:08:52;2.28;;;1.92;;
55663;SDS011;41540;57.880;12.164;2023-07-24T03:18:53;1.65;;;1.55;;
55663;SDS011;41540;57.880;12.164;2023-07-24T03:28:53;1.65;;;1.40;;
55663;SDS011;41540;57.880;12.164;2023-07-24T03:38:54;1.60;;;1.50;;
55663;SDS011;41540;57.880;12.164;2023-07-24T03:48:54;1.90;;;1.40;;
55663;SDS011;41540;57.880;12.164;2023-07-24T03:58:54;1.23;;;1.10;;
55663;SDS011;41540;57.880;12.164;2023-07-24T04:08:55;1.05;;;1.00;;
55663;SDS011;41540;57.880;12.164;2023-07-24T04:18:55;0.90;;;0.90;;
55663;SDS011;41540;57.880;12.164;2023-07-24T04:28:56;0.65;;;0.65;;
55663;SDS011;41540;57.880;12.164;2023-07-24T04:38:56;0.98;;;0.98;;
55663;SDS011;41540;57.880;12.164;2023-07-24T04:48:56;0.73;;;0.73;;
55663;SDS011;41540;57.880;12.164;2023-07-24T04:58:57;0.90;;;0.90;;
55663;SDS011;41540;57.880;12.164;2023-07-24T05:08:57;4.15;;;1.27;;
55663;SDS011;41540;57.880;12.164;2023-07-24T05:18:57;1.10;;;1.00;;
55663;SDS011;41540;57.880;12.164;2023-07-24T05:28:58;2.22;;;0.95;;
55663;SDS011;41540;57.880;12.164;2023-07-24T05:38:58;1.33;;;0.73;;
55663;SDS011;41540;57.880;12.164;2023-07-24T05:48:59;1.23;;;1.13;;
55663;SDS011;41540;57.880;12.164;2023-07-24T05:59:01;4.75;;;1.30;;
55663;SDS011;41540;57.880;12.164;2023-07-24T06:09:02;0.90;;;0.90;;
55663;SDS011;41540;57.880;12.164;2023-07-24T06:19:03;1.45;;;1.35;;
55663;SDS011;41540;57.880;12.164;2023-07-24T06:29:03;1.80;;;1.60;;
55663;SDS011;41540;57.880;12.164;2023-07-24T06:39:03;3.35;;;2.38;;
55663;SDS011;41540;57.880;12.164;2023-07-24T06:49:04;2.40;;;2.20;;
55663;SDS011;41540;57.880;12.164;2023-07-24T06:59:04;4.32;;;3.38;;
55663;SDS011;41540;57.880;12.164;2023-07-24T07:09:05;3.55;;;3.28;;
55663;SDS011;41540;57.880;12.164;2023-07-24T07:19:06;3.58;;;2.55;;
55663;SDS011;41540;57.880;12.164;2023-07-24T07:29:09;4.47;;;3.05;;
55663;SDS011;41540;57.880;12.164;2023-07-24T07:39:09;5.43;;;2.60;;
55663;SDS011;41540;57.880;12.164;2023-07-24T07:49:10;3.45;;;2.65;;
55663;SDS011;41540;57.880;12.164;2023-07-24T07:59:10;3.95;;;3.28;;
55663;SDS011;41540;57.880;12.164;2023-07-24T08:09:10;5.07;;;3.60;;
55663;SDS011;41540;57.880;12.164;2023-07-24T08:19:11;13.10;;;4.43;;
55663;SDS011;41540;57.880;12.164;2023-07-24T08:29:12;6.65;;;4.70;;
55663;SDS011;41540;57.880;12.164;2023-07-24T08:39:13;5.72;;;4.10;;
55663;SDS011;41540;57.880;12.164;2023-07-24T08:49:14;6.03;;;3.85;;
55663;SDS011;41540;57.880;12.164;2023-07-24T08:59:14;5.45;;;3.63;;
55663;SDS011;41540;57.880;12.164;2023-07-24T09:09:15;3.47;;;3.13;;
55663;SDS011;41540;57.880;12.164;2023-07-24T09:19:17;4.38;;;4.05;;
55663;SDS011;41540;57.880;12.164;2023-07-24T09:29:18;5.67;;;3.73;;
55663;SDS011;41540;57.880;12.164;2023-07-24T09:39:26;4.73;;;4.33;;
55663;SDS011;41540;57.880;12.164;2023-07-24T09:49:27;6.07;;;2.60;;
55663;SDS011;41540;57.880;12.164;2023-07-24T09:59:27;1.90;;;1.38;;
55663;SDS011;41540;57.880;12.164;2023-07-24T10:09:29;3.90;;;1.50;;
55663;SDS011;41540;57.880;12.164;2023-07-24T10:19:40;1.58;;;1.00;;
55663;SDS011;41540;57.880;12.164;2023-07-24T10:29:43;2.75;;;0.90;;
55663;SDS011;41540;57.880;12.164;2023-07-24T10:39:47;1.58;;;1.00;;
55663;SDS011;41540;57.880;12.164;2023-07-24T10:49:50;0.93;;;0.90;;
55663;SDS011;41540;57.880;12.164;2023-07-24T10:59:50;1.00;;;0.90;;
55663;SDS011;41540;57.880;12.164;2023-07-24T11:09:51;0.75;;;0.73;;
55663;SDS011;41540;57.880;12.164;2023-07-24T11:19:59;0.63;;;0.63;;
55663;SDS011;41540;57.880;12.164;2023-07-24T11:30:05;1.50;;;1.13;;
55663;SDS011;41540;57.880;12.164;2023-07-24T11:40:06;0.65;;;0.65;;
55663;SDS011;41540;57.880;12.164;2023-07-24T11:50:11;1.15;;;1.00;;
55663;SDS011;41540;57.880;12.164;2023-07-24T12:00:21;2.47;;;1.20;;
55663;SDS011;41540;57.880;12.164;2023-07-24T12:10:26;0.85;;;0.80;;
55663;SDS011;41540;57.880;12.164;2023-07-24T12:20:27;0.80;;;0.80;;
55663;SDS011;41540;57.880;12.164;2023-07-24T12:30:28;0.70;;;0.70;;
55663;SDS011;41540;57.880;12.164;2023-07-24T12:40:29;2.95;;;1.40;;
55663;SDS011;41540;57.880;12.164;2023-07-24T12:50:29;0.95;;;0.82;;
55663;SDS011;41540;57.880;12.164;2023-07-24T13:00:30;1.70;;;1.43;;
55663;SDS011;41540;57.880;12.164;2023-07-24T13:10:31;0.80;;;0.80;;
55663;SDS011;41540;57.880;12.164;2023-07-24T13:20:32;1.00;;;0.90;;
55663;SDS011;41540;57.880;12.164;2023-07-24T13:30:32;0.82;;;0.77;;
55663;SDS011;41540;57.880;12.164;2023-07-24T13:40:33;4.70;;;1.20;;
55663;SDS011;41540;57.880;12.164;2023-07-24T13:50:33;1.63;;;1.40;;
55663;SDS011;41540;57.880;12.164;2023-07-24T14:00:34;2.00;;;0.82;;
55663;SDS011;41540;57.880;12.164;2023-07-24T14:10:34;4.82;;;1.15;;
55663;SDS011;41540;57.880;12.164;2023-07-24T14:20:35;1.80;;;1.00;;
55663;SDS011;41540;57.880;12.164;2023-07-24T14:30:37;1.25;;;1.15;;
55663;SDS011;41540;57.880;12.164;2023-07-24T14:40:37;1.45;;;0.98;;
55663;SDS011;41540;57.880;12.164;2023-07-24T14:50:39;1.15;;;0.90;;
55663;SDS011;41540;57.880;12.164;2023-07-24T15:00:40;0.60;;;0.60;;
55663;SDS011;41540;57.880;12.164;2023-07-24T15:10:40;3.20;;;1.15;;
55663;SDS011;41540;57.880;12.164;2023-07-24T15:20:41;1.38;;;1.02;;
55663;SDS011;41540;57.880;12.164;2023-07-24T15:30:42;0.80;;;0.80;;
55663;SDS011;41540;57.880;12.164;2023-07-24T15:50:43;2.47;;;1.40;;
55663;SDS011;41540;57.880;12.164;2023-07-24T16:00:44;1.83;;;1.42;;
55663;SDS011;41540;57.880;12.164;2023-07-24T16:10:44;1.75;;;1.25;;
55663;SDS011;41540;57.880;12.164;2023-07-24T16:20:44;3.80;;;1.25;;
55663;SDS011;41540;57.880;12.164;2023-07-24T16:30:45;5.57;;;1.92;;
55663;SDS011;41540;57.880;12.164;2023-07-24T16:40:45;4.70;;;2.40;;
55663;SDS011;41540;57.880;12.164;2023-07-24T16:50:46;11.10;;;2.78;;
55663;SDS011;41540;57.880;12.164;2023-07-24T17:00:46;8.05;;;2.38;;
55663;SDS011;41540;57.880;12.164;2023-07-24T17:10:48;5.57;;;2.35;;
55663;SDS011;41540;57.880;12.164;2023-07-24T17:20:49;6.07;;;2.00;;
55663;SDS011;41540;57.880;12.164;2023-07-24T17:30:50;11.93;;;3.80;;
55663;SDS011;41540;57.880;12.164;2023-07-24T17:40:51;7.47;;;2.77;;
55663;SDS011;41540;57.880;12.164;2023-07-24T17:50:51;12.43;;;4.35;;
55663;SDS011;41540;57.880;12.164;2023-07-24T18:00:52;6.80;;;3.38;;
55663;SDS011;41540;57.880;12.164;2023-07-24T18:10:52;11.05;;;3.30;;
55663;SDS011;41540;57.880;12.164;2023-07-24T18:20:53;7.80;;;4.05;;
55663;SDS011;41540;57.880;12.164;2023-07-24T18:30:54;13.18;;;4.43;;
55663;SDS011;41540;57.880;12.164;2023-07-24T18:40:54;10.35;;;3.65;;
55663;SDS011;41540;57.880;12.164;2023-07-24T18:50:55;9.68;;;2.88;;
55663;SDS011;41540;57.880;12.164;2023-07-24T19:00:56;5.18;;;3.13;;
55663;SDS011;41540;57.880;12.164;2023-07-24T19:10:56;7.35;;;3.90;;
55663;SDS011;41540;57.880;12.164;2023-07-24T19:20:57;4.53;;;2.30;;
55663;SDS011;41540;57.880;12.164;2023-07-24T19:30:57;7.28;;;2.92;;
55663;SDS011;41540;57.880;12.164;2023-07-24T19:40:58;1.63;;;1.52;;
55663;SDS011;41540;57.880;12.164;2023-07-24T19:51:00;5.97;;;2.95;;
55663;SDS011;41540;57.880;12.164;2023-07-24T20:01:02;6.20;;;2.60;;
55663;SDS011;41540;57.880;12.164;2023-07-24T20:11:04;4.57;;;2.10;;
55663;SDS011;41540;57.880;12.164;2023-07-24T20:21:08;5.35;;;2.03;;
55663;SDS011;41540;57.880;12.164;2023-07-24T20:31:08;3.88;;;1.73;;
55663;SDS011;41540;57.880;12.164;2023-07-24T20:41:09;4.05;;;2.00;;
55663;SDS011;41540;57.880;12.164;2023-07-24T20:51:18;7.07;;;2.20;;
55663;SDS011;41540;57.880;12.164;2023-07-24T21:01:20;2.00;;;1.60;;
55663;SDS011;41540;57.880;12.164;2023-07-24T21:11:22;8.20;;;1.83;;
55663;SDS011;41540;57.880;12.164;2023-07-24T21:21:23;3.42;;;1.50;;
55663;SDS011;41540;57.880;12.164;2023-07-24T21:31:23;9.07;;;1.85;;
55663;SDS011;41540;57.880;12.164;2023-07-24T21:41:24;2.95;;;1.65;;
55663;SDS011;41540;57.880;12.164;2023-07-24T21:51:24;1.65;;;1.40;;
55663;SDS011;41540;57.880;12.164;2023-07-24T22:01:24;1.52;;;0.98;;
55663;SDS011;41540;57.880;12.164;2023-07-24T22:11:25;4.65;;;1.88;;
55663;SDS011;41540;57.880;12.164;2023-07-24T22:21:25;3.33;;;1.60;;
55663;SDS011;41540;57.880;12.164;2023-07-24T22:31:26;2.75;;;1.40;;
55663;SDS011;41540;57.880;12.164;2023-07-24T22:41:26;1.92;;;1.02;;
55663;SDS011;41540;57.880;12.164;2023-07-24T22:51:26;4.35;;;1.48;;
55663;SDS011;41540;57.880;12.164;2023-07-24T23:01:27;2.42;;;1.10;;
55663;SDS011;41540;57.880;12.164;2023-07-24T23:11:28;8.85;;;1.73;;
55663;SDS011;41540;57.880;12.164;2023-07-24T23:21:29;1.58;;;1.40;;
55663;SDS011;41540;57.880;12.164;2023-07-24T23:31:29;3.15;;;1.10;;
55663;SDS011;41540;57.880;12.164;2023-07-24T23:41:30;4.25;;;1.75;;
55663;SDS011;41540;57.880;12.164;2023-07-24T23:51:30;7.13;;;1.63;;
